1814 UTC 26 May 2016 found at http://aviationweather.gov/adds/metars/
 
METAR text: KMNH 261755Z AUTO 14005KT 10SM SCT036 15/05 A2998 RMK AO2 LTG DSNT N S AND NW
Conditions at: KMNH (MONUMENT/ELBERT , CO, US) observed 1755 UTC 26 May 2016
Temperature: 15.0°C (59°F)
Dewpoint: 5.0°C (41°F) [RH = 51%]
Pressure (altimeter): 29.98 inches Hg (1015.3 mb)
Winds: from the SE (140 degrees) at 6 MPH (5 knots; 2.6 m/s)
Visibility: 10 or more miles (16+ km)
Ceiling: at least 12,000 feet AGL
Clouds: scattered clouds at 3600 feet AGL
Weather: automated observation with no human augmentation;
there may or may not be significant weather present at this time

METAR text: KMNH 261736Z AUTO 07005KT 10SM BKN036 15/05 A2999 RMK AO2 LTG DSNT NW THRU NE
Conditions at: KMNH (MONUMENT/ELBERT , CO, US) observed 1736 UTC 26 May 2016
Temperature: 15.0°C (59°F)
Dewpoint: 5.0°C (41°F) [RH = 51%]
Pressure (altimeter): 29.99 inches Hg (1015.7 mb)
Winds: from the ENE (70 degrees) at 6 MPH (5 knots; 2.6 m/s)
Visibility: 10 or more miles (16+ km)
Ceiling: 3600 feet AGL
Clouds: broken clouds at 3600 feet AGL
Weather: automated observation with no human augmentation;
there may or may not be significant weather present at this time

METAR text: KMNH 261715Z AUTO 06005KT 10SM SCT032 14/04 A3000 RMK AO2 LTG DSNT SW THRU N
Conditions at: KMNH (MONUMENT/ELBERT , CO, US) observed 1715 UTC 26 May 2016
Temperature: 14.0°C (57°F)
Dewpoint: 4.0°C (39°F) [RH = 51%]
Pressure (altimeter): 30.00 inches Hg (1016.0 mb)
Winds: from the ENE (60 degrees) at 6 MPH (5 knots; 2.6 m/s)
Visibility: 10 or more miles (16+ km)
Ceiling: at least 12,000 feet AGL
Clouds: scattered clouds at 3200 feet AGL
Weather: automated observation with no human augmentation;
there may or may not be significant weather present at this time

METAR text: KMNH 261656Z AUTO 00000KT 10SM VCTS SCT029 SCT036 SCT046 13/05 A3001 RMK AO2
Conditions at: KMNH (MONUMENT/ELBERT , CO, US) observed 1656 UTC 26 May 2016
Temperature: 13.0°C (55°F)
Dewpoint: 5.0°C (41°F) [RH = 58%]
Pressure (altimeter): 30.01 inches Hg (1016.3 mb)
Winds: calm
Visibility: 10 or more miles (16+ km)
Ceiling: at least 12,000 feet AGL
Clouds: scattered clouds at 2900 feet AGL
scattered clouds at 3600 feet AGL
scattered clouds at 4600 feet AGL
Weather: VCTS  (thunderstorm in vicinity)

METAR text: KMNH 261636Z AUTO 14005KT 10SM SCT025 SCT036 SCT046 13/06 A3003 RMK AO2 LTG DSNT NE
Conditions at: KMNH (MONUMENT/ELBERT , CO, US) observed 1636 UTC 26 May 2016
Temperature: 13.0°C (55°F)
Dewpoint: 6.0°C (43°F) [RH = 62%]
Pressure (altimeter): 30.03 inches Hg (1017.0 mb)
Winds: from the SE (140 degrees) at 6 MPH (5 knots; 2.6 m/s)
Visibility: 10 or more miles (16+ km)
Ceiling: at least 12,000 feet AGL
Clouds: scattered clouds at 2500 feet AGL
scattered clouds at 3600 feet AGL
scattered clouds at 4600 feet AGL
Weather: automated observation with no human augmentation;
there may or may not be significant weather present at this time

METAR text: KMNH 261616Z AUTO 18004KT 10SM SCT025 SCT034 SCT041 12/06 A3004 RMK AO2
Conditions at: KMNH (MONUMENT/ELBERT , CO, US) observed 1616 UTC 26 May 2016
Temperature: 12.0°C (54°F)
Dewpoint: 6.0°C (43°F) [RH = 67%]
Pressure (altimeter): 30.04 inches Hg (1017.4 mb)
Winds: from the S (180 degrees) at 5 MPH (4 knots; 2.1 m/s)
Visibility: 10 or more miles (16+ km)
Ceiling: at least 12,000 feet AGL
Clouds: scattered clouds at 2500 feet AGL
scattered clouds at 3400 feet AGL
scattered clouds at 4100 feet AGL
Weather: automated observation with no human augmentation;
there may or may not be significant weather present at this time

METAR text: KMNH 261556Z AUTO 00000KT 10SM SCT035 12/05 A3004 RMK AO2
Conditions at: KMNH (MONUMENT/ELBERT , CO, US) observed 1556 UTC 26 May 2016
Temperature: 12.0°C (54°F)
Dewpoint: 5.0°C (41°F) [RH = 62%]
Pressure (altimeter): 30.04 inches Hg (1017.4 mb)
Winds: calm
Visibility: 10 or more miles (16+ km)
Ceiling: at least 12,000 feet AGL
Clouds: scattered clouds at 3500 feet AGL
Weather: automated observation with no human augmentation;
there may or may not be significant weather present at this time

METAR text: KMNH 261536Z AUTO 15003KT 10SM SCT025 BKN033 11/05 A3005 RMK AO2 LTG DSNT N
Conditions at: KMNH (MONUMENT/ELBERT , CO, US) observed 1536 UTC 26 May 2016
Temperature: 11.0°C (52°F)
Dewpoint: 5.0°C (41°F) [RH = 66%]
Pressure (altimeter): 30.05 inches Hg (1017.7 mb)
Winds: from the SSE (150 degrees) at 3 MPH (3 knots; 1.6 m/s)
Visibility: 10 or more miles (16+ km)
Ceiling: 3300 feet AGL
Clouds: scattered clouds at 2500 feet AGL
broken clouds at 3300 feet AGL
Weather: automated observation with no human augmentation;
there may or may not be significant weather present at this time

METAR text: KMNH 261516Z AUTO 10005KT 10SM SCT019 OVC025 10/04 A3006 RMK AO2
Conditions at: KMNH (MONUMENT/ELBERT , CO, US) observed 1516 UTC 26 May 2016
Temperature: 10.0°C (50°F)
Dewpoint: 4.0°C (39°F) [RH = 66%]
Pressure (altimeter): 30.06 inches Hg (1018.0 mb)
Winds: from the E (100 degrees) at 6 MPH (5 knots; 2.6 m/s)
Visibility: 10 or more miles (16+ km)
Ceiling: 2500 feet AGL
Clouds: scattered clouds at 1900 feet AGL
overcast cloud deck at 2500 feet AGL
Weather: automated observation with no human augmentation;
there may or may not be significant weather present at this time

METAR text: KMNH 261456Z AUTO 01003KT 10SM BKN019 OVC024 10/03 A3006 RMK AO2
Conditions at: KMNH (MONUMENT/ELBERT , CO, US) observed 1456 UTC 26 May 2016
Temperature: 10.0°C (50°F)
Dewpoint: 3.0°C (37°F) [RH = 62%]
Pressure (altimeter): 30.06 inches Hg (1018.0 mb)
Winds: from the N (10 degrees) at 3 MPH (3 knots; 1.6 m/s)
Visibility: 10 or more miles (16+ km)
Ceiling: 1900 feet AGL
Clouds: broken clouds at 1900 feet AGL
overcast cloud deck at 2400 feet AGL
Weather: automated observation with no human augmentation;
there may or may not be significant weather present at this time

METAR text: KMNH 261436Z AUTO 33005KT 10SM BKN019 OVC024 09/03 A3006 RMK AO2
Conditions at: KMNH (MONUMENT/ELBERT , CO, US) observed 1436 UTC 26 May 2016
Temperature: 9.0°C (48°F)
Dewpoint: 3.0°C (37°F) [RH = 66%]
Pressure (altimeter): 30.06 inches Hg (1018.0 mb)
Winds: from the NNW (330 degrees) at 6 MPH (5 knots; 2.6 m/s)
Visibility: 10 or more miles (16+ km)
Ceiling: 1900 feet AGL
Clouds: broken clouds at 1900 feet AGL
overcast cloud deck at 2400 feet AGL
Weather: automated observation with no human augmentation;
there may or may not be significant weather present at this time

METAR text: KMNH 261416Z AUTO 31007KT 10SM BKN019 OVC024 09/03 A3006 RMK AO2
Conditions at: KMNH (MONUMENT/ELBERT , CO, US) observed 1416 UTC 26 May 2016
Temperature: 9.0°C (48°F)
Dewpoint: 3.0°C (37°F) [RH = 66%]
Pressure (altimeter): 30.06 inches Hg (1018.0 mb)
Winds: from the NW (310 degrees) at 8 MPH (7 knots; 3.6 m/s)
Visibility: 10 or more miles (16+ km)
Ceiling: 1900 feet AGL
Clouds: broken clouds at 1900 feet AGL
overcast cloud deck at 2400 feet AGL
Weather: automated observation with no human augmentation;
there may or may not be significant weather present at this time

METAR text: KMNH 261356Z AUTO 32006KT 10SM BKN019 08/03 A3006 RMK AO2
Conditions at: KMNH (MONUMENT/ELBERT , CO, US) observed 1356 UTC 26 May 2016
Temperature: 8.0°C (46°F)
Dewpoint: 3.0°C (37°F) [RH = 71%]
Pressure (altimeter): 30.06 inches Hg (1018.0 mb)
Winds: from the NW (320 degrees) at 7 MPH (6 knots; 3.1 m/s)
Visibility: 10 or more miles (16+ km)
Ceiling: 1900 feet AGL
Clouds: broken clouds at 1900 feet AGL
Weather: automated observation with no human augmentation;
there may or may not be significant weather present at this time

METAR text: KMNH 261336Z AUTO 30007KT 10SM BKN019 BKN024 08/03 A3006 RMK AO2
Conditions at: KMNH (MONUMENT/ELBERT , CO, US) observed 1336 UTC 26 May 2016
Temperature: 8.0°C (46°F)
Dewpoint: 3.0°C (37°F) [RH = 71%]
Pressure (altimeter): 30.06 inches Hg (1018.0 mb)
Winds: from the WNW (300 degrees) at 8 MPH (7 knots; 3.6 m/s)
Visibility: 10 or more miles (16+ km)
Ceiling: 1900 feet AGL
Clouds: broken clouds at 1900 feet AGL
broken clouds at 2400 feet AGL
Weather: automated observation with no human augmentation;
there may or may not be significant weather present at this time

METAR text: KMNH 261316Z AUTO 26006KT 10SM SCT017 BKN025 07/03 A3007 RMK AO2 LTG DSNT NE
Conditions at: KMNH (MONUMENT/ELBERT , CO, US) observed 1316 UTC 26 May 2016
Temperature: 7.0°C (45°F)
Dewpoint: 3.0°C (37°F) [RH = 76%]
Pressure (altimeter): 30.07 inches Hg (1018.4 mb)
Winds: from the W (260 degrees) at 7 MPH (6 knots; 3.1 m/s)
Visibility: 10 or more miles (16+ km)
Ceiling: 2500 feet AGL
Clouds: scattered clouds at 1700 feet AGL
broken clouds at 2500 feet AGL
Weather: automated observation with no human augmentation;
there may or may not be significant weather present at this time

METAR text: KMNH 261255Z AUTO 28005KT 10SM SCT017 BKN025 06/03 A3006 RMK AO2
Conditions at: KMNH (MONUMENT/ELBERT , CO, US) observed 1255 UTC 26 May 2016
Temperature: 6.0°C (43°F)
Dewpoint: 3.0°C (37°F) [RH = 81%]
Pressure (altimeter): 30.06 inches Hg (1018.0 mb)
Winds: from the W (280 degrees) at 6 MPH (5 knots; 2.6 m/s)
Visibility: 10 or more miles (16+ km)
Ceiling: 2500 feet AGL
Clouds: scattered clouds at 1700 feet AGL
broken clouds at 2500 feet AGL
Weather: automated observation with no human augmentation;
there may or may not be significant weather present at this time

METAR text: KMNH 261236Z AUTO 28004KT 10SM BKN022 BKN028 07/03 A3006 RMK AO2
Conditions at: KMNH (MONUMENT/ELBERT , CO, US) observed 1236 UTC 26 May 2016
Temperature: 7.0°C (45°F)
Dewpoint: 3.0°C (37°F) [RH = 76%]
Pressure (altimeter): 30.06 inches Hg (1018.0 mb)
Winds: from the W (280 degrees) at 5 MPH (4 knots; 2.1 m/s)
Visibility: 10 or more miles (16+ km)
Ceiling: 2200 feet AGL
Clouds: broken clouds at 2200 feet AGL
broken clouds at 2800 feet AGL
Weather: automated observation with no human augmentation;
there may or may not be significant weather present at this time

METAR text: KMNH 261216Z AUTO 30004KT 10SM BKN022 BKN095 06/03 A3007 RMK AO2
Conditions at: KMNH (MONUMENT/ELBERT , CO, US) observed 1216 UTC 26 May 2016
Temperature: 6.0°C (43°F)
Dewpoint: 3.0°C (37°F) [RH = 81%]
Pressure (altimeter): 30.07 inches Hg (1018.4 mb)
Winds: from the WNW (300 degrees) at 5 MPH (4 knots; 2.1 m/s)
Visibility: 10 or more miles (16+ km)
Ceiling: 2200 feet AGL
Clouds: broken clouds at 2200 feet AGL
broken clouds at 9500 feet AGL
Weather: automated observation with no human augmentation;
there may or may not be significant weather present at this time

METAR text: KMNH 261156Z AUTO 34007KT 10SM BKN024 SCT095 BKN120 05/03 A3006 RMK AO2
Conditions at: KMNH (MONUMENT/ELBERT , CO, US) observed 1156 UTC 26 May 2016
Temperature: 5.0°C (41°F)
Dewpoint: 3.0°C (37°F) [RH = 87%]
Pressure (altimeter): 30.06 inches Hg (1018.0 mb)
Winds: from the NNW (340 degrees) at 8 MPH (7 knots; 3.6 m/s)
Visibility: 10 or more miles (16+ km)
Ceiling: 2400 feet AGL
Clouds: broken clouds at 2400 feet AGL
scattered clouds at 9500 feet AGL
broken clouds at 12000 feet AGL
Weather: automated observation with no human augmentation;
there may or may not be significant weather present at this time

METAR text: KMNH 261135Z AUTO 28006KT 10SM OVC024 06/03 A3008 RMK AO2
Conditions at: KMNH (MONUMENT/ELBERT , CO, US) observed 1135 UTC 26 May 2016
Temperature: 6.0°C (43°F)
Dewpoint: 3.0°C (37°F) [RH = 81%]
Pressure (altimeter): 30.08 inches Hg (1018.7 mb)
Winds: from the W (280 degrees) at 7 MPH (6 knots; 3.1 m/s)
Visibility: 10 or more miles (16+ km)
Ceiling: 2400 feet AGL
Clouds: overcast cloud deck at 2400 feet AGL
Weather: automated observation with no human augmentation;
there may or may not be significant weather present at this time

METAR text: KMNH 261115Z AUTO 27006KT 10SM BKN024 05/03 A3008 RMK AO2
Conditions at: KMNH (MONUMENT/ELBERT , CO, US) observed 1115 UTC 26 May 2016
Temperature: 5.0°C (41°F)
Dewpoint: 3.0°C (37°F) [RH = 87%]
Pressure (altimeter): 30.08 inches Hg (1018.7 mb)
Winds: from the W (270 degrees) at 7 MPH (6 knots; 3.1 m/s)
Visibility: 10 or more miles (16+ km)
Ceiling: 2400 feet AGL
Clouds: broken clouds at 2400 feet AGL
Weather: automated observation with no human augmentation;
there may or may not be significant weather present at this time

METAR text: KMNH 261056Z AUTO 26008KT 10SM BKN024 05/03 A3008 RMK AO2
Conditions at: KMNH (MONUMENT/ELBERT , CO, US) observed 1056 UTC 26 May 2016
Temperature: 5.0°C (41°F)
Dewpoint: 3.0°C (37°F) [RH = 87%]
Pressure (altimeter): 30.08 inches Hg (1018.7 mb)
Winds: from the W (260 degrees) at 9 MPH (8 knots; 4.2 m/s)
Visibility: 10 or more miles (16+ km)
Ceiling: 2400 feet AGL
Clouds: broken clouds at 2400 feet AGL
Weather: automated observation with no human augmentation;
there may or may not be significant weather present at this time

METAR text: KMNH 261036Z AUTO 26008KT 10SM SCT026 05/03 A3008 RMK AO2
Conditions at: KMNH (MONUMENT/ELBERT , CO, US) observed 1036 UTC 26 May 2016
Temperature: 5.0°C (41°F)
Dewpoint: 3.0°C (37°F) [RH = 87%]
Pressure (altimeter): 30.08 inches Hg (1018.7 mb)
Winds: from the W (260 degrees) at 9 MPH (8 knots; 4.2 m/s)
Visibility: 10 or more miles (16+ km)
Ceiling: at least 12,000 feet AGL
Clouds: scattered clouds at 2600 feet AGL
Weather: automated observation with no human augmentation;
there may or may not be significant weather present at this time

METAR text: KMNH 261016Z AUTO 31005KT 10SM BKN026 05/04 A3008 RMK AO2
Conditions at: KMNH (MONUMENT/ELBERT , CO, US) observed 1016 UTC 26 May 2016
Temperature: 5.0°C (41°F)
Dewpoint: 4.0°C (39°F) [RH = 93%]
Pressure (altimeter): 30.08 inches Hg (1018.7 mb)
Winds: from the NW (310 degrees) at 6 MPH (5 knots; 2.6 m/s)
Visibility: 10 or more miles (16+ km)
Ceiling: 2600 feet AGL
Clouds: broken clouds at 2600 feet AGL
Weather: automated observation with no human augmentation;
there may or may not be significant weather present at this time

METAR text: KMNH 260956Z AUTO 00000KT 10SM OVC026 05/04 A3010 RMK AO2
Conditions at: KMNH (MONUMENT/ELBERT , CO, US) observed 0956 UTC 26 May 2016
Temperature: 5.0°C (41°F)
Dewpoint: 4.0°C (39°F) [RH = 93%]
Pressure (altimeter): 30.10 inches Hg (1019.4 mb)
Winds: calm
Visibility: 10 or more miles (16+ km)
Ceiling: 2600 feet AGL
Clouds: overcast cloud deck at 2600 feet AGL
Weather: automated observation with no human augmentation;
there may or may not be significant weather present at this time

METAR text: KMNH 260936Z AUTO 00000KT 10SM BKN024 05/04 A3009 RMK AO2
Conditions at: KMNH (MONUMENT/ELBERT , CO, US) observed 0936 UTC 26 May 2016
Temperature: 5.0°C (41°F)
Dewpoint: 4.0°C (39°F) [RH = 93%]
Pressure (altimeter): 30.09 inches Hg (1019.0 mb)
Winds: calm
Visibility: 10 or more miles (16+ km)
Ceiling: 2400 feet AGL
Clouds: broken clouds at 2400 feet AGL
Weather: automated observation with no human augmentation;
there may or may not be significant weather present at this time

METAR text: KMNH 260916Z AUTO 29003KT 10SM CLR 03/03 A3008 RMK AO2
Conditions at: KMNH (MONUMENT/ELBERT , CO, US) observed 0916 UTC 26 May 2016
Temperature: 3.0°C (37°F)
Dewpoint: 3.0°C (37°F) [RH = 100%]
Pressure (altimeter): 30.08 inches Hg (1018.7 mb)
Winds: from the WNW (290 degrees) at 3 MPH (3 knots; 1.6 m/s)
Visibility: 10 or more miles (16+ km)
Ceiling: at least 12,000 feet AGL
Clouds: sky clear below 12,000 feet AGL
Weather: automated observation with no human augmentation;
there may or may not be significant weather present at this time

METAR text: KMNH 260856Z AUTO 28008KT 10SM CLR 04/03 A3008 RMK AO2
Conditions at: KMNH (MONUMENT/ELBERT , CO, US) observed 0856 UTC 26 May 2016
Temperature: 4.0°C (39°F)
Dewpoint: 3.0°C (37°F) [RH = 93%]
Pressure (altimeter): 30.08 inches Hg (1018.7 mb)
Winds: from the W (280 degrees) at 9 MPH (8 knots; 4.2 m/s)
Visibility: 10 or more miles (16+ km)
Ceiling: at least 12,000 feet AGL
Clouds: sky clear below 12,000 feet AGL
Weather: automated observation with no human augmentation;
there may or may not be significant weather present at this time

METAR text: KMNH 260836Z AUTO 30006KT 10SM CLR 05/03 A3009 RMK AO2
Conditions at: KMNH (MONUMENT/ELBERT , CO, US) observed 0836 UTC 26 May 2016
Temperature: 5.0°C (41°F)
Dewpoint: 3.0°C (37°F) [RH = 87%]
Pressure (altimeter): 30.09 inches Hg (1019.0 mb)
Winds: from the WNW (300 degrees) at 7 MPH (6 knots; 3.1 m/s)
Visibility: 10 or more miles (16+ km)
Ceiling: at least 12,000 feet AGL
Clouds: sky clear below 12,000 feet AGL
Weather: automated observation with no human augmentation;
there may or may not be significant weather present at this time

METAR text: KMNH 260816Z AUTO 32007KT 10SM CLR 05/04 A3009 RMK AO2
Conditions at: KMNH (MONUMENT/ELBERT , CO, US) observed 0816 UTC 26 May 2016
Temperature: 5.0°C (41°F)
Dewpoint: 4.0°C (39°F) [RH = 93%]
Pressure (altimeter): 30.09 inches Hg (1019.0 mb)
Winds: from the NW (320 degrees) at 8 MPH (7 knots; 3.6 m/s)
Visibility: 10 or more miles (16+ km)
Ceiling: at least 12,000 feet AGL
Clouds: sky clear below 12,000 feet AGL
Weather: automated observation with no human augmentation;
there may or may not be significant weather present at this time

METAR text: KMNH 260756Z AUTO 35003KT 10SM CLR 05/04 A3009 RMK AO2
Conditions at: KMNH (MONUMENT/ELBERT , CO, US) observed 0756 UTC 26 May 2016
Temperature: 5.0°C (41°F)
Dewpoint: 4.0°C (39°F) [RH = 93%]
Pressure (altimeter): 30.09 inches Hg (1019.0 mb)
Winds: from the N (350 degrees) at 3 MPH (3 knots; 1.6 m/s)
Visibility: 10 or more miles (16+ km)
Ceiling: at least 12,000 feet AGL
Clouds: sky clear below 12,000 feet AGL
Weather: automated observation with no human augmentation;
there may or may not be significant weather present at this time

METAR text: KMNH 260736Z AUTO 33007KT 10SM CLR 05/03 A3009 RMK AO2
Conditions at: KMNH (MONUMENT/ELBERT , CO, US) observed 0736 UTC 26 May 2016
Temperature: 5.0°C (41°F)
Dewpoint: 3.0°C (37°F) [RH = 87%]
Pressure (altimeter): 30.09 inches Hg (1019.0 mb)
Winds: from the NNW (330 degrees) at 8 MPH (7 knots; 3.6 m/s)
Visibility: 10 or more miles (16+ km)
Ceiling: at least 12,000 feet AGL
Clouds: sky clear below 12,000 feet AGL
Weather: automated observation with no human augmentation;
there may or may not be significant weather present at this time

METAR text: KMNH 260716Z AUTO 31009KT 10SM CLR 05/02 A3009 RMK AO2
Conditions at: KMNH (MONUMENT/ELBERT , CO, US) observed 0716 UTC 26 May 2016
Temperature: 5.0°C (41°F)
Dewpoint: 2.0°C (36°F) [RH = 81%]
Pressure (altimeter): 30.09 inches Hg (1019.0 mb)
Winds: from the NW (310 degrees) at 10 MPH (9 knots; 4.7 m/s)
Visibility: 10 or more miles (16+ km)
Ceiling: at least 12,000 feet AGL
Clouds: sky clear below 12,000 feet AGL
Weather: automated observation with no human augmentation;
there may or may not be significant weather present at this time

METAR text: KMNH 260656Z AUTO 09003KT 10SM CLR 07/01 A3008 RMK AO2
Conditions at: KMNH (MONUMENT/ELBERT , CO, US) observed 0656 UTC 26 May 2016
Temperature: 7.0°C (45°F)
Dewpoint: 1.0°C (34°F) [RH = 66%]
Pressure (altimeter): 30.08 inches Hg (1018.7 mb)
Winds: from the E (90 degrees) at 3 MPH (3 knots; 1.6 m/s)
Visibility: 10 or more miles (16+ km)
Ceiling: at least 12,000 feet AGL
Clouds: sky clear below 12,000 feet AGL
Weather: automated observation with no human augmentation;
there may or may not be significant weather present at this time

METAR text: KMNH 260636Z AUTO 10003KT 10SM CLR 08/01 A3009 RMK AO2
Conditions at: KMNH (MONUMENT/ELBERT , CO, US) observed 0636 UTC 26 May 2016
Temperature: 8.0°C (46°F)
Dewpoint: 1.0°C (34°F) [RH = 61%]
Pressure (altimeter): 30.09 inches Hg (1019.0 mb)
Winds: from the E (100 degrees) at 3 MPH (3 knots; 1.6 m/s)
Visibility: 10 or more miles (16+ km)
Ceiling: at least 12,000 feet AGL
Clouds: sky clear below 12,000 feet AGL
Weather: automated observation with no human augmentation;
there may or may not be significant weather present at this time

METAR text: KMNH 260616Z AUTO 22004KT 10SM CLR 07/01 A3009 RMK AO2
Conditions at: KMNH (MONUMENT/ELBERT , CO, US) observed 0616 UTC 26 May 2016
Temperature: 7.0°C (45°F)
Dewpoint: 1.0°C (34°F) [RH = 66%]
Pressure (altimeter): 30.09 inches Hg (1019.0 mb)
Winds: from the SW (220 degrees) at 5 MPH (4 knots; 2.1 m/s)
Visibility: 10 or more miles (16+ km)
Ceiling: at least 12,000 feet AGL
Clouds: sky clear below 12,000 feet AGL
Weather: automated observation with no human augmentation;
there may or may not be significant weather present at this time

METAR text: KMNH 260556Z AUTO 25005KT 10SM CLR 07/01 A3009 RMK AO2
Conditions at: KMNH (MONUMENT/ELBERT , CO, US) observed 0556 UTC 26 May 2016
Temperature: 7.0°C (45°F)
Dewpoint: 1.0°C (34°F) [RH = 66%]
Pressure (altimeter): 30.09 inches Hg (1019.0 mb)
Winds: from the WSW (250 degrees) at 6 MPH (5 knots; 2.6 m/s)
Visibility: 10 or more miles (16+ km)
Ceiling: at least 12,000 feet AGL
Clouds: sky clear below 12,000 feet AGL
Weather: automated observation with no human augmentation;
there may or may not be significant weather present at this time

METAR text: KMNH 260536Z AUTO 16005KT 10SM CLR 07/00 A3008 RMK AO2
Conditions at: KMNH (MONUMENT/ELBERT , CO, US) observed 0536 UTC 26 May 2016
Temperature: 7.0°C (45°F)
Dewpoint: 0.0°C (32°F) [RH = 61%]
Pressure (altimeter): 30.08 inches Hg (1018.7 mb)
Winds: from the SSE (160 degrees) at 6 MPH (5 knots; 2.6 m/s)
Visibility: 10 or more miles (16+ km)
Ceiling: at least 12,000 feet AGL
Clouds: sky clear below 12,000 feet AGL
Weather: automated observation with no human augmentation;
there may or may not be significant weather present at this time

METAR text: KMNH 260516Z AUTO 12009KT 10SM CLR 09/00 A3008 RMK AO2
Conditions at: KMNH (MONUMENT/ELBERT , CO, US) observed 0516 UTC 26 May 2016
Temperature: 9.0°C (48°F)
Dewpoint: 0.0°C (32°F) [RH = 53%]
Pressure (altimeter): 30.08 inches Hg (1018.7 mb)
Winds: from the ESE (120 degrees) at 10 MPH (9 knots; 4.7 m/s)
Visibility: 10 or more miles (16+ km)
Ceiling: at least 12,000 feet AGL
Clouds: sky clear below 12,000 feet AGL
Weather: automated observation with no human augmentation;
there may or may not be significant weather present at this time

METAR text: KMNH 260456Z AUTO 06004KT 10SM CLR 11/02 A3008 RMK AO2
Conditions at: KMNH (MONUMENT/ELBERT , CO, US) observed 0456 UTC 26 May 2016
Temperature: 11.0°C (52°F)
Dewpoint: 2.0°C (36°F) [RH = 54%]
Pressure (altimeter): 30.08 inches Hg (1018.7 mb)
Winds: from the ENE (60 degrees) at 5 MPH (4 knots; 2.1 m/s)
Visibility: 10 or more miles (16+ km)
Ceiling: at least 12,000 feet AGL
Clouds: sky clear below 12,000 feet AGL
Weather: automated observation with no human augmentation;
there may or may not be significant weather present at this time

METAR text: KMNH 260436Z AUTO 32004KT 10SM SCT110 12/02 A3008 RMK AO2
Conditions at: KMNH (MONUMENT/ELBERT , CO, US) observed 0436 UTC 26 May 2016
Temperature: 12.0°C (54°F)
Dewpoint: 2.0°C (36°F) [RH = 50%]
Pressure (altimeter): 30.08 inches Hg (1018.7 mb)
Winds: from the NW (320 degrees) at 5 MPH (4 knots; 2.1 m/s)
Visibility: 10 or more miles (16+ km)
Ceiling: at least 12,000 feet AGL
Clouds: scattered clouds at 11000 feet AGL
Weather: automated observation with no human augmentation;
there may or may not be significant weather present at this time

METAR text: KMNH 260416Z AUTO 13003KT 10SM SCT110 11/00 A3008 RMK AO2
Conditions at: KMNH (MONUMENT/ELBERT , CO, US) observed 0416 UTC 26 May 2016
Temperature: 11.0°C (52°F)
Dewpoint: 0.0°C (32°F) [RH = 47%]
Pressure (altimeter): 30.08 inches Hg (1018.7 mb)
Winds: from the SE (130 degrees) at 3 MPH (3 knots; 1.6 m/s)
Visibility: 10 or more miles (16+ km)
Ceiling: at least 12,000 feet AGL
Clouds: scattered clouds at 11000 feet AGL
Weather: automated observation with no human augmentation;
there may or may not be significant weather present at this time

METAR text: KMNH 260356Z AUTO 17003KT 10SM CLR 11/M03 A3007 RMK AO2
Conditions at: KMNH (MONUMENT/ELBERT , CO, US) observed 0356 UTC 26 May 2016
Temperature: 11.0°C (52°F)
Dewpoint: -3.0°C (27°F) [RH = 37%]
Pressure (altimeter): 30.07 inches Hg (1018.4 mb)
Winds: from the S (170 degrees) at 3 MPH (3 knots; 1.6 m/s)
Visibility: 10 or more miles (16+ km)
Ceiling: at least 12,000 feet AGL
Clouds: sky clear below 12,000 feet AGL
Weather: automated observation with no human augmentation;
there may or may not be significant weather present at this time

METAR text: KMNH 260336Z AUTO 22004KT 10SM CLR 10/M01 A3006 RMK AO2
Conditions at: KMNH (MONUMENT/ELBERT , CO, US) observed 0336 UTC 26 May 2016
Temperature: 10.0°C (50°F)
Dewpoint: -1.0°C (30°F) [RH = 46%]
Pressure (altimeter): 30.06 inches Hg (1018.0 mb)
Winds: from the SW (220 degrees) at 5 MPH (4 knots; 2.1 m/s)
Visibility: 10 or more miles (16+ km)
Ceiling: at least 12,000 feet AGL
Clouds: sky clear below 12,000 feet AGL
Weather: automated observation with no human augmentation;
there may or may not be significant weather present at this time

METAR text: KMNH 260316Z AUTO 24005G14KT 10SM SCT110 15/M07 A3005 RMK AO2
Conditions at: KMNH (MONUMENT/ELBERT , CO, US) observed 0316 UTC 26 May 2016
Temperature: 15.0°C (59°F)
Dewpoint: -7.0°C (19°F) [RH = 21%]
Pressure (altimeter): 30.05 inches Hg (1017.7 mb)
Winds: from the WSW (240 degrees) at 6 MPH (5 knots; 2.6 m/sgusting to 16 MPH (14 knots; 7.3 m/s)
Visibility: 10 or more miles (16+ km)
Ceiling: at least 12,000 feet AGL
Clouds: scattered clouds at 11000 feet AGL
Weather: automated observation with no human augmentation;
there may or may not be significant weather present at this time

METAR text: KMNH 260256Z AUTO 22006KT 10SM BKN110 12/01 A3005 RMK AO2
Conditions at: KMNH (MONUMENT/ELBERT , CO, US) observed 0256 UTC 26 May 2016
Temperature: 12.0°C (54°F)
Dewpoint: 1.0°C (34°F) [RH = 47%]
Pressure (altimeter): 30.05 inches Hg (1017.7 mb)
Winds: from the SW (220 degrees) at 7 MPH (6 knots; 3.1 m/s)
Visibility: 10 or more miles (16+ km)
Ceiling: 11000 feet AGL
Clouds: broken clouds at 11000 feet AGL
Weather: automated observation with no human augmentation;
there may or may not be significant weather present at this time

METAR text: KMNH 260235Z AUTO 28004KT 10SM SCT095 SCT120 12/02 A3005 RMK AO2
Conditions at: KMNH (MONUMENT/ELBERT , CO, US) observed 0235 UTC 26 May 2016
Temperature: 12.0°C (54°F)
Dewpoint: 2.0°C (36°F) [RH = 50%]
Pressure (altimeter): 30.05 inches Hg (1017.7 mb)
Winds: from the W (280 degrees) at 5 MPH (4 knots; 2.1 m/s)
Visibility: 10 or more miles (16+ km)
Ceiling: at least 12,000 feet AGL
Clouds: scattered clouds at 9500 feet AGL
scattered clouds at 12000 feet AGL
Weather: automated observation with no human augmentation;
there may or may not be significant weather present at this time

METAR text: KMNH 260216Z AUTO 00000KT 10SM CLR 13/00 A3004 RMK AO2
Conditions at: KMNH (MONUMENT/ELBERT , CO, US) observed 0216 UTC 26 May 2016
Temperature: 13.0°C (55°F)
Dewpoint: 0.0°C (32°F) [RH = 41%]
Pressure (altimeter): 30.04 inches Hg (1017.4 mb)
Winds: calm
Visibility: 10 or more miles (16+ km)
Ceiling: at least 12,000 feet AGL
Clouds: sky clear below 12,000 feet AGL
Weather: automated observation with no human augmentation;
there may or may not be significant weather present at this time

METAR text: KMNH 260156Z AUTO 00000KT 10SM CLR 16/M02 A3003 RMK AO2
Conditions at: KMNH (MONUMENT/ELBERT , CO, US) observed 0156 UTC 26 May 2016
Temperature: 16.0°C (61°F)
Dewpoint: -2.0°C (28°F) [RH = 29%]
Pressure (altimeter): 30.03 inches Hg (1017.0 mb)
Winds: calm
Visibility: 10 or more miles (16+ km)
Ceiling: at least 12,000 feet AGL
Clouds: sky clear below 12,000 feet AGL
Weather: automated observation with no human augmentation;
there may or may not be significant weather present at this time

METAR text: KMNH 260135Z AUTO 00000KT 7SM SCT120 16/00 A3003 RMK AO2
Conditions at: KMNH (MONUMENT/ELBERT , CO, US) observed 0135 UTC 26 May 2016
Temperature: 16.0°C (61°F)
Dewpoint: 0.0°C (32°F) [RH = 34%]
Pressure (altimeter): 30.03 inches Hg (1017.0 mb)
Winds: calm
Visibility: 7 miles (11 km)
Ceiling: at least 12,000 feet AGL
Clouds: scattered clouds at 12000 feet AGL
Weather: automated observation with no human augmentation;
there may or may not be significant weather present at this time

METAR text: KMNH 260116Z AUTO 00000KT 10SM CLR 16/00 A3003 RMK AO2 LTG DSNT NE
Conditions at: KMNH (MONUMENT/ELBERT , CO, US) observed 0116 UTC 26 May 2016
Temperature: 16.0°C (61°F)
Dewpoint: 0.0°C (32°F) [RH = 34%]
Pressure (altimeter): 30.03 inches Hg (1017.0 mb)
Winds: calm
Visibility: 10 or more miles (16+ km)
Ceiling: at least 12,000 feet AGL
Clouds: sky clear below 12,000 feet AGL
Weather: automated observation with no human augmentation;
there may or may not be significant weather present at this time

METAR text: KMNH 260056Z AUTO 30003KT 10SM CLR 17/01 A3002 RMK AO2
Conditions at: KMNH (MONUMENT/ELBERT , CO, US) observed 0056 UTC 26 May 2016
Temperature: 17.0°C (63°F)
Dewpoint: 1.0°C (34°F) [RH = 34%]
Pressure (altimeter): 30.02 inches Hg (1016.7 mb)
Winds: from the WNW (300 degrees) at 3 MPH (3 knots; 1.6 m/s)
Visibility: 10 or more miles (16+ km)
Ceiling: at least 12,000 feet AGL
Clouds: sky clear below 12,000 feet AGL
Weather: automated observation with no human augmentation;
there may or may not be significant weather present at this time

METAR text: KMNH 260036Z AUTO 31005KT 10SM CLR 17/00 A3002 RMK AO2
Conditions at: KMNH (MONUMENT/ELBERT , CO, US) observed 0036 UTC 26 May 2016
Temperature: 17.0°C (63°F)
Dewpoint: 0.0°C (32°F) [RH = 32%]
Pressure (altimeter): 30.02 inches Hg (1016.7 mb)
Winds: from the NW (310 degrees) at 6 MPH (5 knots; 2.6 m/s)
Visibility: 10 or more miles (16+ km)
Ceiling: at least 12,000 feet AGL
Clouds: sky clear below 12,000 feet AGL
Weather: automated observation with no human augmentation;
there may or may not be significant weather present at this time

METAR text: KMNH 260016Z AUTO 22006KT 10SM CLR 17/M07 A3001 RMK AO2
Conditions at: KMNH (MONUMENT/ELBERT , CO, US) observed 0016 UTC 26 May 2016
Temperature: 17.0°C (63°F)
Dewpoint: -7.0°C (19°F) [RH = 19%]
Pressure (altimeter): 30.01 inches Hg (1016.3 mb)
Winds: from the SW (220 degrees) at 7 MPH (6 knots; 3.1 m/s)
Visibility: 10 or more miles (16+ km)
Ceiling: at least 12,000 feet AGL
Clouds: sky clear below 12,000 feet AGL
Weather: automated observation with no human augmentation;
there may or may not be significant weather present at this time

METAR text: KMNH 252355Z AUTO 25010G17KT 10SM CLR 17/M07 A3001 RMK AO2
Conditions at: KMNH (MONUMENT/ELBERT , CO, US) observed 2355 UTC 25 May 2016
Temperature: 17.0°C (63°F)
Dewpoint: -7.0°C (19°F) [RH = 19%]
Pressure (altimeter): 30.01 inches Hg (1016.3 mb)
Winds: from the WSW (250 degrees) at 12 MPH (10 knots; 5.2 m/sgusting to 20 MPH (17 knots; 8.8 m/s)
Visibility: 10 or more miles (16+ km)
Ceiling: at least 12,000 feet AGL
Clouds: sky clear below 12,000 feet AGL
Weather: automated observation with no human augmentation;
there may or may not be significant weather present at this time

METAR text: KMNH 252336Z AUTO 20012G19KT 10SM CLR 17/M06 A3001 RMK AO2
Conditions at: KMNH (MONUMENT/ELBERT , CO, US) observed 2336 UTC 25 May 2016
Temperature: 17.0°C (63°F)
Dewpoint: -6.0°C (21°F) [RH = 20%]
Pressure (altimeter): 30.01 inches Hg (1016.3 mb)
Winds: from the SSW (200 degrees) at 14 MPH (12 knots; 6.2 m/sgusting to 22 MPH (19 knots; 9.9 m/s)
Visibility: 10 or more miles (16+ km)
Ceiling: at least 12,000 feet AGL
Clouds: sky clear below 12,000 feet AGL
Weather: automated observation with no human augmentation;
there may or may not be significant weather present at this time

METAR text: KMNH 252315Z AUTO 21008KT 10SM CLR 17/M07 A3001 RMK AO2 LTG DSNT N AND NW
Conditions at: KMNH (MONUMENT/ELBERT , CO, US) observed 2315 UTC 25 May 2016
Temperature: 17.0°C (63°F)
Dewpoint: -7.0°C (19°F) [RH = 19%]
Pressure (altimeter): 30.01 inches Hg (1016.3 mb)
Winds: from the SSW (210 degrees) at 9 MPH (8 knots; 4.2 m/s)
Visibility: 10 or more miles (16+ km)
Ceiling: at least 12,000 feet AGL
Clouds: sky clear below 12,000 feet AGL
Weather: automated observation with no human augmentation;
there may or may not be significant weather present at this time

METAR text: KMNH 252256Z AUTO 26008KT 230V290 10SM CLR 17/M01 A3001 RMK AO2 LTG DSNT N AND NE
Conditions at: KMNH (MONUMENT/ELBERT , CO, US) observed 2256 UTC 25 May 2016
Temperature: 17.0°C (63°F)
Dewpoint: -1.0°C (30°F) [RH = 29%]
Pressure (altimeter): 30.01 inches Hg (1016.3 mb)
Winds: from the W (260 degrees) at 9 MPH (8 knots; 4.2 m/s)
Visibility: 10 or more miles (16+ km)
Ceiling: at least 12,000 feet AGL
Clouds: sky clear below 12,000 feet AGL
Weather: automated observation with no human augmentation;
there may or may not be significant weather present at this time

METAR text: KMNH 252235Z AUTO 21008KT 10SM CLR 17/M02 A3001 RMK AO2 LTG DSNT NE
Conditions at: KMNH (MONUMENT/ELBERT , CO, US) observed 2235 UTC 25 May 2016
Temperature: 17.0°C (63°F)
Dewpoint: -2.0°C (28°F) [RH = 27%]
Pressure (altimeter): 30.01 inches Hg (1016.3 mb)
Winds: from the SSW (210 degrees) at 9 MPH (8 knots; 4.2 m/s)
Visibility: 10 or more miles (16+ km)
Ceiling: at least 12,000 feet AGL
Clouds: sky clear below 12,000 feet AGL
Weather: automated observation with no human augmentation;
there may or may not be significant weather present at this time

METAR text: KMNH 252216Z AUTO 14008KT 10SM CLR 18/M09 A3001 RMK AO2
Conditions at: KMNH (MONUMENT/ELBERT , CO, US) observed 2216 UTC 25 May 2016
Temperature: 18.0°C (64°F)
Dewpoint: -9.0°C (16°F) [RH = 15%]
Pressure (altimeter): 30.01 inches Hg (1016.3 mb)
Winds: from the SE (140 degrees) at 9 MPH (8 knots; 4.2 m/s)
Visibility: 10 or more miles (16+ km)
Ceiling: at least 12,000 feet AGL
Clouds: sky clear below 12,000 feet AGL
Weather: automated observation with no human augmentation;
there may or may not be significant weather present at this time

METAR text: KMNH 252155Z AUTO 21009G14KT 10SM CLR 18/M10 A3002 RMK AO2 LTG DSNT N
Conditions at: KMNH (MONUMENT/ELBERT , CO, US) observed 2155 UTC 25 May 2016
Temperature: 18.0°C (64°F)
Dewpoint: -10.0°C (14°F) [RH = 14%]
Pressure (altimeter): 30.02 inches Hg (1016.7 mb)
Winds: from the SSW (210 degrees) at 10 MPH (9 knots; 4.7 m/sgusting to 16 MPH (14 knots; 7.3 m/s)
Visibility: 10 or more miles (16+ km)
Ceiling: at least 12,000 feet AGL
Clouds: sky clear below 12,000 feet AGL
Weather: automated observation with no human augmentation;
there may or may not be significant weather present at this time

METAR text: KMNH 252136Z AUTO 29013G26KT 10SM CLR 19/M11 A3002 RMK AO2
Conditions at: KMNH (MONUMENT/ELBERT , CO, US) observed 2136 UTC 25 May 2016
Temperature: 19.0°C (66°F)
Dewpoint: -11.0°C (12°F) [RH = 12%]
Pressure (altimeter): 30.02 inches Hg (1016.7 mb)
Winds: from the WNW (290 degrees) at 15 MPH (13 knots; 6.8 m/sgusting to 30 MPH (26 knots; 13.5 m/s)
Visibility: 10 or more miles (16+ km)
Ceiling: at least 12,000 feet AGL
Clouds: sky clear below 12,000 feet AGL
Weather: automated observation with no human augmentation;
there may or may not be significant weather present at this time

METAR text: KMNH 252115Z AUTO 28022G28KT 10SM CLR 21/M11 A3003 RMK AO2
Conditions at: KMNH (MONUMENT/ELBERT , CO, US) observed 2115 UTC 25 May 2016
Temperature: 21.0°C (70°F)
Dewpoint: -11.0°C (12°F) [RH = 11%]
Pressure (altimeter): 30.03 inches Hg (1017.0 mb)
Winds: from the W (280 degrees) at 25 MPH (22 knots; 11.4 m/sgusting to 32 MPH (28 knots; 14.6 m/s)
Visibility: 10 or more miles (16+ km)
Ceiling: at least 12,000 feet AGL
Clouds: sky clear below 12,000 feet AGL
Weather: automated observation with no human augmentation;
there may or may not be significant weather present at this time

METAR text: KMNH 252055Z AUTO 24022G29KT 10SM CLR 20/M11 A3003 RMK AO2 LTG DSNT NW
Conditions at: KMNH (MONUMENT/ELBERT , CO, US) observed 2055 UTC 25 May 2016
Temperature: 20.0°C (68°F)
Dewpoint: -11.0°C (12°F) [RH = 11%]
Pressure (altimeter): 30.03 inches Hg (1017.0 mb)
Winds: from the WSW (240 degrees) at 25 MPH (22 knots; 11.4 m/sgusting to 33 MPH (29 knots; 15.1 m/s)
Visibility: 10 or more miles (16+ km)
Ceiling: at least 12,000 feet AGL
Clouds: sky clear below 12,000 feet AGL
Weather: automated observation with no human augmentation;
there may or may not be significant weather present at this time

METAR text: KMNH 252036Z AUTO 24015G23KT 10SM CLR 20/M10 A3004 RMK AO2
Conditions at: KMNH (MONUMENT/ELBERT , CO, US) observed 2036 UTC 25 May 2016
Temperature: 20.0°C (68°F)
Dewpoint: -10.0°C (14°F) [RH = 12%]
Pressure (altimeter): 30.04 inches Hg (1017.4 mb)
Winds: from the WSW (240 degrees) at 17 MPH (15 knots; 7.8 m/sgusting to 26 MPH (23 knots; 12.0 m/s)
Visibility: 10 or more miles (16+ km)
Ceiling: at least 12,000 feet AGL
Clouds: sky clear below 12,000 feet AGL
Weather: automated observation with no human augmentation;
there may or may not be significant weather present at this time

METAR text: KMNH 252016Z AUTO 05006KT 10SM SCT090 17/00 A3005 RMK AO2
Conditions at: KMNH (MONUMENT/ELBERT , CO, US) observed 2016 UTC 25 May 2016
Temperature: 17.0°C (63°F)
Dewpoint: 0.0°C (32°F) [RH = 32%]
Pressure (altimeter): 30.05 inches Hg (1017.7 mb)
Winds: from the NE (50 degrees) at 7 MPH (6 knots; 3.1 m/s)
Visibility: 10 or more miles (16+ km)
Ceiling: at least 12,000 feet AGL
Clouds: scattered clouds at 9000 feet AGL
Weather: automated observation with no human augmentation;
there may or may not be significant weather present at this time

METAR text: KMNH 251956Z AUTO 08011G18KT 10SM CLR 16/01 A3005 RMK AO2
Conditions at: KMNH (MONUMENT/ELBERT , CO, US) observed 1956 UTC 25 May 2016
Temperature: 16.0°C (61°F)
Dewpoint: 1.0°C (34°F) [RH = 36%]
Pressure (altimeter): 30.05 inches Hg (1017.7 mb)
Winds: from the E (80 degrees) at 13 MPH (11 knots; 5.7 m/sgusting to 21 MPH (18 knots; 9.4 m/s)
Visibility: 10 or more miles (16+ km)
Ceiling: at least 12,000 feet AGL
Clouds: sky clear below 12,000 feet AGL
Weather: automated observation with no human augmentation;
there may or may not be significant weather present at this time

METAR text: KMNH 251936Z AUTO 07008KT 10SM CLR 16/02 A3006 RMK AO2
Conditions at: KMNH (MONUMENT/ELBERT , CO, US) observed 1936 UTC 25 May 2016
Temperature: 16.0°C (61°F)
Dewpoint: 2.0°C (36°F) [RH = 39%]
Pressure (altimeter): 30.06 inches Hg (1018.0 mb)
Winds: from the ENE (70 degrees) at 9 MPH (8 knots; 4.2 m/s)
Visibility: 10 or more miles (16+ km)
Ceiling: at least 12,000 feet AGL
Clouds: sky clear below 12,000 feet AGL
Weather: automated observation with no human augmentation;
there may or may not be significant weather present at this time

METAR text: KMNH 251915Z AUTO 10013G19KT 10SM SCT110 17/02 A3007 RMK AO2
Conditions at: KMNH (MONUMENT/ELBERT , CO, US) observed 1915 UTC 25 May 2016
Temperature: 17.0°C (63°F)
Dewpoint: 2.0°C (36°F) [RH = 36%]
Pressure (altimeter): 30.07 inches Hg (1018.4 mb)
Winds: from the E (100 degrees) at 15 MPH (13 knots; 6.8 m/sgusting to 22 MPH (19 knots; 9.9 m/s)
Visibility: 10 or more miles (16+ km)
Ceiling: at least 12,000 feet AGL
Clouds: scattered clouds at 11000 feet AGL
Weather: automated observation with no human augmentation;
there may or may not be significant weather present at this time

METAR text: KMNH 251856Z AUTO 08009G15KT 10SM CLR 16/02 A3007 RMK AO2
Conditions at: KMNH (MONUMENT/ELBERT , CO, US) observed 1856 UTC 25 May 2016
Temperature: 16.0°C (61°F)
Dewpoint: 2.0°C (36°F) [RH = 39%]
Pressure (altimeter): 30.07 inches Hg (1018.4 mb)
Winds: from the E (80 degrees) at 10 MPH (9 knots; 4.7 m/sgusting to 17 MPH (15 knots; 7.8 m/s)
Visibility: 10 or more miles (16+ km)
Ceiling: at least 12,000 feet AGL
Clouds: sky clear below 12,000 feet AGL
Weather: automated observation with no human augmentation;
there may or may not be significant weather present at this time

METAR text: KMNH 251836Z AUTO 09008KT 10SM CLR 17/02 A3008 RMK AO2
Conditions at: KMNH (MONUMENT/ELBERT , CO, US) observed 1836 UTC 25 May 2016
Temperature: 17.0°C (63°F)
Dewpoint: 2.0°C (36°F) [RH = 36%]
Pressure (altimeter): 30.08 inches Hg (1018.7 mb)
Winds: from the E (90 degrees) at 9 MPH (8 knots; 4.2 m/s)
Visibility: 10 or more miles (16+ km)
Ceiling: at least 12,000 feet AGL
Clouds: sky clear below 12,000 feet AGL
Weather: automated observation with no human augmentation;
there may or may not be significant weather present at this time

METAR text: KMNH 251816Z AUTO 08012G17KT 10SM CLR 17/01 A3008 RMK AO2
Conditions at: KMNH (MONUMENT/ELBERT , CO, US) observed 1816 UTC 25 May 2016
Temperature: 17.0°C (63°F)
Dewpoint: 1.0°C (34°F) [RH = 34%]
Pressure (altimeter): 30.08 inches Hg (1018.7 mb)
Winds: from the E (80 degrees) at 14 MPH (12 knots; 6.2 m/sgusting to 20 MPH (17 knots; 8.8 m/s)
Visibility: 10 or more miles (16+ km)
Ceiling: at least 12,000 feet AGL
Clouds: sky clear below 12,000 feet AGL
Weather: automated observation with no human augmentation;
there may or may not be significant weather present at this time

METAR text: KMNH 251756Z AUTO 06010G15KT 10SM CLR 16/01 A3008 RMK AO2
Conditions at: KMNH (MONUMENT/ELBERT , CO, US) observed 1756 UTC 25 May 2016
Temperature: 16.0°C (61°F)
Dewpoint: 1.0°C (34°F) [RH = 36%]
Pressure (altimeter): 30.08 inches Hg (1018.7 mb)
Winds: from the ENE (60 degrees) at 12 MPH (10 knots; 5.2 m/sgusting to 17 MPH (15 knots; 7.8 m/s)
Visibility: 10 or more miles (16+ km)
Ceiling: at least 12,000 feet AGL
Clouds: sky clear below 12,000 feet AGL
Weather: automated observation with no human augmentation;
there may or may not be significant weather present at this time

METAR text: KMNH 251736Z AUTO 08005KT 10SM CLR 16/01 A3008 RMK AO2
Conditions at: KMNH (MONUMENT/ELBERT , CO, US) observed 1736 UTC 25 May 2016
Temperature: 16.0°C (61°F)
Dewpoint: 1.0°C (34°F) [RH = 36%]
Pressure (altimeter): 30.08 inches Hg (1018.7 mb)
Winds: from the E (80 degrees) at 6 MPH (5 knots; 2.6 m/s)
Visibility: 10 or more miles (16+ km)
Ceiling: at least 12,000 feet AGL
Clouds: sky clear below 12,000 feet AGL
Weather: automated observation with no human augmentation;
there may or may not be significant weather present at this time

METAR text: KMNH 251716Z AUTO 05003KT 10SM CLR 15/00 A3009 RMK AO2
Conditions at: KMNH (MONUMENT/ELBERT , CO, US) observed 1716 UTC 25 May 2016
Temperature: 15.0°C (59°F)
Dewpoint: 0.0°C (32°F) [RH = 36%]
Pressure (altimeter): 30.09 inches Hg (1019.0 mb)
Winds: from the NE (50 degrees) at 3 MPH (3 knots; 1.6 m/s)
Visibility: 10 or more miles (16+ km)
Ceiling: at least 12,000 feet AGL
Clouds: sky clear below 12,000 feet AGL
Weather: automated observation with no human augmentation;
there may or may not be significant weather present at this time

METAR text: KMNH 251656Z AUTO 00000KT 10SM CLR 15/00 A3009 RMK AO2
Conditions at: KMNH (MONUMENT/ELBERT , CO, US) observed 1656 UTC 25 May 2016
Temperature: 15.0°C (59°F)
Dewpoint: 0.0°C (32°F) [RH = 36%]
Pressure (altimeter): 30.09 inches Hg (1019.0 mb)
Winds: calm
Visibility: 10 or more miles (16+ km)
Ceiling: at least 12,000 feet AGL
Clouds: sky clear below 12,000 feet AGL
Weather: automated observation with no human augmentation;
there may or may not be significant weather present at this time

METAR text: KMNH 251636Z AUTO 09006KT 10SM CLR 14/02 A3009 RMK AO2
Conditions at: KMNH (MONUMENT/ELBERT , CO, US) observed 1636 UTC 25 May 2016
Temperature: 14.0°C (57°F)
Dewpoint: 2.0°C (36°F) [RH = 44%]
Pressure (altimeter): 30.09 inches Hg (1019.0 mb)
Winds: from the E (90 degrees) at 7 MPH (6 knots; 3.1 m/s)
Visibility: 10 or more miles (16+ km)
Ceiling: at least 12,000 feet AGL
Clouds: sky clear below 12,000 feet AGL
Weather: automated observation with no human augmentation;
there may or may not be significant weather present at this time

METAR text: KMNH 251616Z AUTO 10004KT 10SM CLR 14/01 A3009 RMK AO2
Conditions at: KMNH (MONUMENT/ELBERT , CO, US) observed 1616 UTC 25 May 2016
Temperature: 14.0°C (57°F)
Dewpoint: 1.0°C (34°F) [RH = 41%]
Pressure (altimeter): 30.09 inches Hg (1019.0 mb)
Winds: from the E (100 degrees) at 5 MPH (4 knots; 2.1 m/s)
Visibility: 10 or more miles (16+ km)
Ceiling: at least 12,000 feet AGL
Clouds: sky clear below 12,000 feet AGL
Weather: automated observation with no human augmentation;
there may or may not be significant weather present at this time

METAR text: KMNH 251556Z AUTO 05004KT 10SM CLR 13/02 A3010 RMK AO2
Conditions at: KMNH (MONUMENT/ELBERT , CO, US) observed 1556 UTC 25 May 2016
Temperature: 13.0°C (55°F)
Dewpoint: 2.0°C (36°F) [RH = 47%]
Pressure (altimeter): 30.10 inches Hg (1019.4 mb)
Winds: from the NE (50 degrees) at 5 MPH (4 knots; 2.1 m/s)
Visibility: 10 or more miles (16+ km)
Ceiling: at least 12,000 feet AGL
Clouds: sky clear below 12,000 feet AGL
Weather: automated observation with no human augmentation;
there may or may not be significant weather present at this time

METAR text: KMNH 251536Z AUTO 06004KT 10SM CLR 13/02 A3010 RMK AO2
Conditions at: KMNH (MONUMENT/ELBERT , CO, US) observed 1536 UTC 25 May 2016
Temperature: 13.0°C (55°F)
Dewpoint: 2.0°C (36°F) [RH = 47%]
Pressure (altimeter): 30.10 inches Hg (1019.4 mb)
Winds: from the ENE (60 degrees) at 5 MPH (4 knots; 2.1 m/s)
Visibility: 10 or more miles (16+ km)
Ceiling: at least 12,000 feet AGL
Clouds: sky clear below 12,000 feet AGL
Weather: automated observation with no human augmentation;
there may or may not be significant weather present at this time

METAR text: KMNH 251516Z AUTO 10009KT 10SM CLR 13/03 A3009 RMK AO2
Conditions at: KMNH (MONUMENT/ELBERT , CO, US) observed 1516 UTC 25 May 2016
Temperature: 13.0°C (55°F)
Dewpoint: 3.0°C (37°F) [RH = 51%]
Pressure (altimeter): 30.09 inches Hg (1019.0 mb)
Winds: from the E (100 degrees) at 10 MPH (9 knots; 4.7 m/s)
Visibility: 10 or more miles (16+ km)
Ceiling: at least 12,000 feet AGL
Clouds: sky clear below 12,000 feet AGL
Weather: automated observation with no human augmentation;
there may or may not be significant weather present at this time

METAR text: KMNH 251456Z AUTO 00000KT 10SM CLR 12/02 A3010 RMK AO2
Conditions at: KMNH (MONUMENT/ELBERT , CO, US) observed 1456 UTC 25 May 2016
Temperature: 12.0°C (54°F)
Dewpoint: 2.0°C (36°F) [RH = 50%]
Pressure (altimeter): 30.10 inches Hg (1019.4 mb)
Winds: calm
Visibility: 10 or more miles (16+ km)
Ceiling: at least 12,000 feet AGL
Clouds: sky clear below 12,000 feet AGL
Weather: automated observation with no human augmentation;
there may or may not be significant weather present at this time

METAR text: KMNH 251436Z AUTO 05004KT 10SM CLR 12/02 A3009 RMK AO2
Conditions at: KMNH (MONUMENT/ELBERT , CO, US) observed 1436 UTC 25 May 2016
Temperature: 12.0°C (54°F)
Dewpoint: 2.0°C (36°F) [RH = 50%]
Pressure (altimeter): 30.09 inches Hg (1019.0 mb)
Winds: from the NE (50 degrees) at 5 MPH (4 knots; 2.1 m/s)
Visibility: 10 or more miles (16+ km)
Ceiling: at least 12,000 feet AGL
Clouds: sky clear below 12,000 feet AGL
Weather: automated observation with no human augmentation;
there may or may not be significant weather present at this time

METAR text: KMNH 251416Z AUTO 03005KT 10SM CLR 11/02 A3009 RMK AO2
Conditions at: KMNH (MONUMENT/ELBERT , CO, US) observed 1416 UTC 25 May 2016
Temperature: 11.0°C (52°F)
Dewpoint: 2.0°C (36°F) [RH = 54%]
Pressure (altimeter): 30.09 inches Hg (1019.0 mb)
Winds: from the NNE (30 degrees) at 6 MPH (5 knots; 2.6 m/s)
Visibility: 10 or more miles (16+ km)
Ceiling: at least 12,000 feet AGL
Clouds: sky clear below 12,000 feet AGL
Weather: automated observation with no human augmentation;
there may or may not be significant weather present at this time

METAR text: KMNH 251356Z AUTO 00000KT 10SM CLR 11/02 A3009 RMK AO2
Conditions at: KMNH (MONUMENT/ELBERT , CO, US) observed 1356 UTC 25 May 2016
Temperature: 11.0°C (52°F)
Dewpoint: 2.0°C (36°F) [RH = 54%]
Pressure (altimeter): 30.09 inches Hg (1019.0 mb)
Winds: calm
Visibility: 10 or more miles (16+ km)
Ceiling: at least 12,000 feet AGL
Clouds: sky clear below 12,000 feet AGL
Weather: automated observation with no human augmentation;
there may or may not be significant weather present at this time

METAR text: KMNH 251336Z AUTO 28005KT 10SM CLR 10/04 A3009 RMK AO2
Conditions at: KMNH (MONUMENT/ELBERT , CO, US) observed 1336 UTC 25 May 2016
Temperature: 10.0°C (50°F)
Dewpoint: 4.0°C (39°F) [RH = 66%]
Pressure (altimeter): 30.09 inches Hg (1019.0 mb)
Winds: from the W (280 degrees) at 6 MPH (5 knots; 2.6 m/s)
Visibility: 10 or more miles (16+ km)
Ceiling: at least 12,000 feet AGL
Clouds: sky clear below 12,000 feet AGL
Weather: automated observation with no human augmentation;
there may or may not be significant weather present at this time

METAR text: KMNH 251316Z AUTO 27005KT 10SM CLR 08/04 A3009 RMK AO2
Conditions at: KMNH (MONUMENT/ELBERT , CO, US) observed 1316 UTC 25 May 2016
Temperature: 8.0°C (46°F)
Dewpoint: 4.0°C (39°F) [RH = 76%]
Pressure (altimeter): 30.09 inches Hg (1019.0 mb)
Winds: from the W (270 degrees) at 6 MPH (5 knots; 2.6 m/s)
Visibility: 10 or more miles (16+ km)
Ceiling: at least 12,000 feet AGL
Clouds: sky clear below 12,000 feet AGL
Weather: automated observation with no human augmentation;
there may or may not be significant weather present at this time

METAR text: KMNH 251256Z AUTO 24005KT 10SM CLR 06/02 A3008 RMK AO2
Conditions at: KMNH (MONUMENT/ELBERT , CO, US) observed 1256 UTC 25 May 2016
Temperature: 6.0°C (43°F)
Dewpoint: 2.0°C (36°F) [RH = 75%]
Pressure (altimeter): 30.08 inches Hg (1018.7 mb)
Winds: from the WSW (240 degrees) at 6 MPH (5 knots; 2.6 m/s)
Visibility: 10 or more miles (16+ km)
Ceiling: at least 12,000 feet AGL
Clouds: sky clear below 12,000 feet AGL
Weather: automated observation with no human augmentation;
there may or may not be significant weather present at this time

METAR text: KMNH 251236Z AUTO 24005KT 10SM CLR 06/01 A3007 RMK AO2
Conditions at: KMNH (MONUMENT/ELBERT , CO, US) observed 1236 UTC 25 May 2016
Temperature: 6.0°C (43°F)
Dewpoint: 1.0°C (34°F) [RH = 70%]
Pressure (altimeter): 30.07 inches Hg (1018.4 mb)
Winds: from the WSW (240 degrees) at 6 MPH (5 knots; 2.6 m/s)
Visibility: 10 or more miles (16+ km)
Ceiling: at least 12,000 feet AGL
Clouds: sky clear below 12,000 feet AGL
Weather: automated observation with no human augmentation;
there may or may not be significant weather present at this time

METAR text: KMNH 251216Z AUTO 26006KT 10SM CLR 04/02 A3007 RMK AO2
Conditions at: KMNH (MONUMENT/ELBERT , CO, US) observed 1216 UTC 25 May 2016
Temperature: 4.0°C (39°F)
Dewpoint: 2.0°C (36°F) [RH = 87%]
Pressure (altimeter): 30.07 inches Hg (1018.4 mb)
Winds: from the W (260 degrees) at 7 MPH (6 knots; 3.1 m/s)
Visibility: 10 or more miles (16+ km)
Ceiling: at least 12,000 feet AGL
Clouds: sky clear below 12,000 feet AGL
Weather: automated observation with no human augmentation;
there may or may not be significant weather present at this time

METAR text: KMNH 251156Z AUTO 27007KT 10SM CLR 03/01 A3007 RMK AO2
Conditions at: KMNH (MONUMENT/ELBERT , CO, US) observed 1156 UTC 25 May 2016
Temperature: 3.0°C (37°F)
Dewpoint: 1.0°C (34°F) [RH = 87%]
Pressure (altimeter): 30.07 inches Hg (1018.4 mb)
Winds: from the W (270 degrees) at 8 MPH (7 knots; 3.6 m/s)
Visibility: 10 or more miles (16+ km)
Ceiling: at least 12,000 feet AGL
Clouds: sky clear below 12,000 feet AGL
Weather: automated observation with no human augmentation;
there may or may not be significant weather present at this time

METAR text: KMNH 251136Z AUTO 26007KT 10SM CLR 03/01 A3006 RMK AO2
Conditions at: KMNH (MONUMENT/ELBERT , CO, US) observed 1136 UTC 25 May 2016
Temperature: 3.0°C (37°F)
Dewpoint: 1.0°C (34°F) [RH = 87%]
Pressure (altimeter): 30.06 inches Hg (1018.0 mb)
Winds: from the W (260 degrees) at 8 MPH (7 knots; 3.6 m/s)
Visibility: 10 or more miles (16+ km)
Ceiling: at least 12,000 feet AGL
Clouds: sky clear below 12,000 feet AGL
Weather: automated observation with no human augmentation;
there may or may not be significant weather present at this time

METAR text: KMNH 251115Z AUTO 00000KT 10SM CLR 05/02 A3006 RMK AO2
Conditions at: KMNH (MONUMENT/ELBERT , CO, US) observed 1115 UTC 25 May 2016
Temperature: 5.0°C (41°F)
Dewpoint: 2.0°C (36°F) [RH = 81%]
Pressure (altimeter): 30.06 inches Hg (1018.0 mb)
Winds: calm
Visibility: 10 or more miles (16+ km)
Ceiling: at least 12,000 feet AGL
Clouds: sky clear below 12,000 feet AGL
Weather: automated observation with no human augmentation;
there may or may not be significant weather present at this time

METAR text: KMNH 251056Z AUTO 13003KT 10SM CLR 03/01 A3004 RMK AO2
Conditions at: KMNH (MONUMENT/ELBERT , CO, US) observed 1056 UTC 25 May 2016
Temperature: 3.0°C (37°F)
Dewpoint: 1.0°C (34°F) [RH = 87%]
Pressure (altimeter): 30.04 inches Hg (1017.4 mb)
Winds: from the SE (130 degrees) at 3 MPH (3 knots; 1.6 m/s)
Visibility: 10 or more miles (16+ km)
Ceiling: at least 12,000 feet AGL
Clouds: sky clear below 12,000 feet AGL
Weather: automated observation with no human augmentation;
there may or may not be significant weather present at this time

METAR text: KMNH 251036Z AUTO 33007KT 10SM CLR 06/01 A3003 RMK AO2
Conditions at: KMNH (MONUMENT/ELBERT , CO, US) observed 1036 UTC 25 May 2016
Temperature: 6.0°C (43°F)
Dewpoint: 1.0°C (34°F) [RH = 70%]
Pressure (altimeter): 30.03 inches Hg (1017.0 mb)
Winds: from the NNW (330 degrees) at 8 MPH (7 knots; 3.6 m/s)
Visibility: 10 or more miles (16+ km)
Ceiling: at least 12,000 feet AGL
Clouds: sky clear below 12,000 feet AGL
Weather: automated observation with no human augmentation;
there may or may not be significant weather present at this time

METAR text: KMNH 251016Z AUTO 34009KT 10SM CLR 06/00 A3002 RMK AO2
Conditions at: KMNH (MONUMENT/ELBERT , CO, US) observed 1016 UTC 25 May 2016
Temperature: 6.0°C (43°F)
Dewpoint: 0.0°C (32°F) [RH = 65%]
Pressure (altimeter): 30.02 inches Hg (1016.7 mb)
Winds: from the NNW (340 degrees) at 10 MPH (9 knots; 4.7 m/s)
Visibility: 10 or more miles (16+ km)
Ceiling: at least 12,000 feet AGL
Clouds: sky clear below 12,000 feet AGL
Weather: automated observation with no human augmentation;
there may or may not be significant weather present at this time

METAR text: KMNH 250956Z AUTO 33005KT 10SM CLR 08/M07 A3001 RMK AO2
Conditions at: KMNH (MONUMENT/ELBERT , CO, US) observed 0956 UTC 25 May 2016
Temperature: 8.0°C (46°F)
Dewpoint: -7.0°C (19°F) [RH = 34%]
Pressure (altimeter): 30.01 inches Hg (1016.3 mb)
Winds: from the NNW (330 degrees) at 6 MPH (5 knots; 2.6 m/s)
Visibility: 10 or more miles (16+ km)
Ceiling: at least 12,000 feet AGL
Clouds: sky clear below 12,000 feet AGL
Weather: automated observation with no human augmentation;
there may or may not be significant weather present at this time

METAR text: KMNH 250936Z AUTO 32005KT 10SM CLR 08/M07 A3001 RMK AO2
Conditions at: KMNH (MONUMENT/ELBERT , CO, US) observed 0936 UTC 25 May 2016
Temperature: 8.0°C (46°F)
Dewpoint: -7.0°C (19°F) [RH = 34%]
Pressure (altimeter): 30.01 inches Hg (1016.3 mb)
Winds: from the NW (320 degrees) at 6 MPH (5 knots; 2.6 m/s)
Visibility: 10 or more miles (16+ km)
Ceiling: at least 12,000 feet AGL
Clouds: sky clear below 12,000 feet AGL
Weather: automated observation with no human augmentation;
there may or may not be significant weather present at this time

METAR text: KMNH 250916Z AUTO 23003KT 10SM CLR 06/M06 A3001 RMK AO2
Conditions at: KMNH (MONUMENT/ELBERT , CO, US) observed 0916 UTC 25 May 2016
Temperature: 6.0°C (43°F)
Dewpoint: -6.0°C (21°F) [RH = 42%]
Pressure (altimeter): 30.01 inches Hg (1016.3 mb)
Winds: from the SW (230 degrees) at 3 MPH (3 knots; 1.6 m/s)
Visibility: 10 or more miles (16+ km)
Ceiling: at least 12,000 feet AGL
Clouds: sky clear below 12,000 feet AGL
Weather: automated observation with no human augmentation;
there may or may not be significant weather present at this time

METAR text: KMNH 250856Z AUTO 20004KT 10SM CLR 06/M06 A3000 RMK AO2
Conditions at: KMNH (MONUMENT/ELBERT , CO, US) observed 0856 UTC 25 May 2016
Temperature: 6.0°C (43°F)
Dewpoint: -6.0°C (21°F) [RH = 42%]
Pressure (altimeter): 30.00 inches Hg (1016.0 mb)
Winds: from the SSW (200 degrees) at 5 MPH (4 knots; 2.1 m/s)
Visibility: 10 or more miles (16+ km)
Ceiling: at least 12,000 feet AGL
Clouds: sky clear below 12,000 feet AGL
Weather: automated observation with no human augmentation;
there may or may not be significant weather present at this time

METAR text: KMNH 250836Z AUTO 00000KT 10SM CLR 08/M06 A3000 RMK AO2
Conditions at: KMNH (MONUMENT/ELBERT , CO, US) observed 0836 UTC 25 May 2016
Temperature: 8.0°C (46°F)
Dewpoint: -6.0°C (21°F) [RH = 36%]
Pressure (altimeter): 30.00 inches Hg (1016.0 mb)
Winds: calm
Visibility: 10 or more miles (16+ km)
Ceiling: at least 12,000 feet AGL
Clouds: sky clear below 12,000 feet AGL
Weather: automated observation with no human augmentation;
there may or may not be significant weather present at this time

METAR text: KMNH 250816Z AUTO 30004KT 10SM CLR 08/M05 A2999 RMK AO2
Conditions at: KMNH (MONUMENT/ELBERT , CO, US) observed 0816 UTC 25 May 2016
Temperature: 8.0°C (46°F)
Dewpoint: -5.0°C (23°F) [RH = 39%]
Pressure (altimeter): 29.99 inches Hg (1015.7 mb)
Winds: from the WNW (300 degrees) at 5 MPH (4 knots; 2.1 m/s)
Visibility: 10 or more miles (16+ km)
Ceiling: at least 12,000 feet AGL
Clouds: sky clear below 12,000 feet AGL
Weather: automated observation with no human augmentation;
there may or may not be significant weather present at this time

METAR text: KMNH 250756Z AUTO 00000KT 10SM CLR 07/M02 A3000 RMK AO2
Conditions at: KMNH (MONUMENT/ELBERT , CO, US) observed 0756 UTC 25 May 2016
Temperature: 7.0°C (45°F)
Dewpoint: -2.0°C (28°F) [RH = 53%]
Pressure (altimeter): 30.00 inches Hg (1016.0 mb)
Winds: calm
Visibility: 10 or more miles (16+ km)
Ceiling: at least 12,000 feet AGL
Clouds: sky clear below 12,000 feet AGL
Weather: automated observation with no human augmentation;
there may or may not be significant weather present at this time

METAR text: KMNH 250736Z AUTO 00000KT 10SM CLR 08/00 A3000 RMK AO2
Conditions at: KMNH (MONUMENT/ELBERT , CO, US) observed 0736 UTC 25 May 2016
Temperature: 8.0°C (46°F)
Dewpoint: 0.0°C (32°F) [RH = 57%]
Pressure (altimeter): 30.00 inches Hg (1016.0 mb)
Winds: calm
Visibility: 10 or more miles (16+ km)
Ceiling: at least 12,000 feet AGL
Clouds: sky clear below 12,000 feet AGL
Weather: automated observation with no human augmentation;
there may or may not be significant weather present at this time

METAR text: KMNH 250716Z AUTO 12004KT 10SM CLR 06/00 A3000 RMK AO2
Conditions at: KMNH (MONUMENT/ELBERT , CO, US) observed 0716 UTC 25 May 2016
Temperature: 6.0°C (43°F)
Dewpoint: 0.0°C (32°F) [RH = 65%]
Pressure (altimeter): 30.00 inches Hg (1016.0 mb)
Winds: from the ESE (120 degrees) at 5 MPH (4 knots; 2.1 m/s)
Visibility: 10 or more miles (16+ km)
Ceiling: at least 12,000 feet AGL
Clouds: sky clear below 12,000 feet AGL
Weather: automated observation with no human augmentation;
there may or may not be significant weather present at this time

METAR text: KMNH 250655Z AUTO 00000KT 10SM CLR 06/01 A2999 RMK AO2
Conditions at: KMNH (MONUMENT/ELBERT , CO, US) observed 0655 UTC 25 May 2016
Temperature: 6.0°C (43°F)
Dewpoint: 1.0°C (34°F) [RH = 70%]
Pressure (altimeter): 29.99 inches Hg (1015.7 mb)
Winds: calm
Visibility: 10 or more miles (16+ km)
Ceiling: at least 12,000 feet AGL
Clouds: sky clear below 12,000 feet AGL
Weather: automated observation with no human augmentation;
there may or may not be significant weather present at this time

METAR text: KMNH 250635Z AUTO 00000KT 10SM CLR 07/02 A2999 RMK AO2
Conditions at: KMNH (MONUMENT/ELBERT , CO, US) observed 0635 UTC 25 May 2016
Temperature: 7.0°C (45°F)
Dewpoint: 2.0°C (36°F) [RH = 70%]
Pressure (altimeter): 29.99 inches Hg (1015.7 mb)
Winds: calm
Visibility: 10 or more miles (16+ km)
Ceiling: at least 12,000 feet AGL
Clouds: sky clear below 12,000 feet AGL
Weather: automated observation with no human augmentation;
there may or may not be significant weather present at this time

METAR text: KMNH 250615Z AUTO 17005KT 10SM CLR 05/04 A2999 RMK AO2
Conditions at: KMNH (MONUMENT/ELBERT , CO, US) observed 0615 UTC 25 May 2016
Temperature: 5.0°C (41°F)
Dewpoint: 4.0°C (39°F) [RH = 93%]
Pressure (altimeter): 29.99 inches Hg (1015.7 mb)
Winds: from the S (170 degrees) at 6 MPH (5 knots; 2.6 m/s)
Visibility: 10 or more miles (16+ km)
Ceiling: at least 12,000 feet AGL
Clouds: sky clear below 12,000 feet AGL
Weather: automated observation with no human augmentation;
there may or may not be significant weather present at this time